Time;durP1;ratioP1;P1;durP2;ratioP2;P2;SDS_P1;SDS_P2;PMS_P1;PMS_P2;Temp;Humidity;BMP_temperature;BMP_pressure;BME280_temperature;BME280_humidity;BME280_pressure;Samples;Min_cycle;Max_cycle;Signal;HPM_P1;HPM_P2
2022/04/27 00:01:50;;;;;;;35.95;26.45;;;7.00;99.90;;;;;;5045585;28;20277;-53
2022/04/27 00:04:17;;;;;;;31.73;23.70;;;6.80;99.90;;;;;;5047013;28;20204;-54
2022/04/27 00:06:48;;;;;;;32.42;24.73;;;6.80;99.90;;;;;;5045343;28;20523;-54
2022/04/27 00:09:15;;;;;;;42.42;27.50;;;6.80;99.90;;;;;;5046715;28;20266;-54
2022/04/27 00:11:43;;;;;;;33.70;24.58;;;6.90;99.90;;;;;;5044853;28;20200;-54
2022/04/27 00:14:10;;;;;;;43.75;29.27;;;6.80;99.90;;;;;;5045684;28;20225;-54
2022/04/27 00:16:37;;;;;;;37.45;26.35;;;6.70;99.90;;;;;;5045256;28;20200;-56
2022/04/27 00:19:05;;;;;;;38.78;27.50;;;6.70;99.90;;;;;;5046802;28;20227;-54
2022/04/27 00:21:33;;;;;;;35.88;27.02;;;6.70;99.90;;;;;;5034236;28;20578;-54
2022/04/27 00:24:00;;;;;;;41.92;27.05;;;6.70;99.90;;;;;;5035201;28;20217;-55
2022/04/27 00:26:28;;;;;;;32.90;24.60;;;6.70;99.90;;;;;;5028338;28;20201;-56
2022/04/27 00:28:55;;;;;;;36.05;26.15;;;6.80;99.90;;;;;;5028076;28;20478;-55
2022/04/27 00:31:22;;;;;;;36.03;25.95;;;6.70;99.90;;;;;;5031469;28;20199;-53
2022/04/27 00:33:49;;;;;;;39.10;27.98;;;6.60;99.90;;;;;;5029164;28;20221;-55
2022/04/27 00:36:17;;;;;;;40.70;29.80;;;6.50;99.90;;;;;;5031824;28;20199;-53
2022/04/27 00:38:44;;;;;;;41.70;30.05;;;6.40;99.90;;;;;;5027764;28;20400;-54
2022/04/27 00:41:11;;;;;;;52.05;32.35;;;6.40;99.90;;;;;;5032240;28;20200;-54
2022/04/27 00:43:40;;;;;;;42.97;29.85;;;6.50;99.90;;;;;;5028516;28;20267;-53
2022/04/27 00:46:11;;;;;;;46.80;30.73;;;6.50;99.90;;;;;;5033062;28;20211;-54
2022/04/27 00:48:39;;;;;;;48.22;31.83;;;6.50;99.90;;;;;;5028442;28;20455;-54
2022/04/27 00:51:08;;;;;;;44.58;29.70;;;6.30;99.90;;;;;;5030747;28;20205;-55
2022/04/27 00:53:37;;;;;;;45.85;29.27;;;6.30;99.90;;;;;;5027939;28;20239;-55
2022/04/27 00:56:04;;;;;;;49.63;29.60;;;6.30;99.90;;;;;;5031803;28;20265;-55
2022/04/27 00:58:31;;;;;;;44.83;29.77;;;6.30;99.90;;;;;;5027864;28;20495;-54
2022/04/27 01:01:16;;;;;;;45.13;30.75;;;6.30;99.90;;;;;;5032416;28;20248;-53
2022/04/27 01:03:44;;;;;;;43.10;32.28;;;6.30;99.90;;;;;;5027709;28;20504;-55
2022/04/27 01:06:12;;;;;;;48.60;31.17;;;6.20;99.90;;;;;;5030195;28;20234;-55
2022/04/27 01:08:45;;;;;;;55.88;32.65;;;6.20;99.90;;;;;;5027427;28;20203;-56
2022/04/27 01:11:23;;;;;;;43.95;31.50;;;6.30;99.90;;;;;;5030395;28;20224;-53
2022/04/27 01:13:53;;;;;;;49.47;31.85;;;6.30;99.90;;;;;;5024962;28;20247;-55
2022/04/27 01:16:21;;;;;;;51.08;33.13;;;6.20;99.90;;;;;;5030711;28;20439;-54
2022/04/27 01:18:49;;;;;;;45.50;30.15;;;6.20;99.90;;;;;;5023834;28;20220;-54
2022/04/27 01:21:17;;;;;;;48.60;33.33;;;6.20;99.90;;;;;;5027596;28;20202;-55
2022/04/27 01:23:44;;;;;;;50.17;33.13;;;6.10;99.90;;;;;;5027954;28;20577;-53
2022/04/27 01:26:11;;;;;;;47.72;32.80;;;6.10;99.90;;;;;;5030185;28;20219;-54
2022/04/27 01:28:38;;;;;;;47.35;33.95;;;6.10;99.90;;;;;;5027392;28;20215;-54
2022/04/27 01:31:10;;;;;;;46.13;31.63;;;6.10;99.90;;;;;;5030595;28;20253;-54
2022/04/27 01:33:39;;;;;;;44.90;33.72;;;6.10;99.90;;;;;;5027917;28;20433;-54
2022/04/27 01:36:07;;;;;;;48.92;35.28;;;6.10;99.90;;;;;;5030344;28;20212;-56
2022/04/27 01:38:42;;;;;;;51.97;34.65;;;6.10;99.90;;;;;;5027170;28;20197;-53
2022/04/27 01:41:10;;;;;;;45.67;35.28;;;6.10;99.90;;;;;;5029973;28;20198;-53
2022/04/27 01:43:38;;;;;;;51.35;35.55;;;6.20;99.90;;;;;;5027103;28;20201;-54
2022/04/27 01:46:05;;;;;;;51.53;35.25;;;6.20;99.90;;;;;;5031177;28;20208;-55
2022/04/27 01:48:33;;;;;;;57.55;38.35;;;6.20;99.90;;;;;;5027199;28;20197;-52
2022/04/27 01:51:00;;;;;;;53.85;34.88;;;6.20;99.90;;;;;;5029901;28;20211;-53
2022/04/27 01:56:14;;;;;;;58.28;36.33;;;6.20;99.90;;;;;;5032914;28;20197;-54
2022/04/27 01:58:42;;;;;;;50.72;34.78;;;6.20;99.90;;;;;;5027487;28;20271;-54
2022/04/27 02:01:12;;;;;;;57.20;37.13;;;6.20;99.90;;;;;;5029426;28;20199;-54
2022/04/27 02:03:40;;;;;;;63.20;38.05;;;6.10;99.90;;;;;;5029591;28;20200;-53
2022/04/27 02:06:08;;;;;;;52.40;37.42;;;6.20;99.90;;;;;;5030699;28;20372;-54
2022/04/27 02:08:35;;;;;;;60.85;41.28;;;6.10;99.90;;;;;;5026915;28;20255;-54
2022/04/27 02:11:06;;;;;;;45.83;35.63;;;6.10;99.90;;;;;;5028824;28;20541;-54
2022/04/27 02:13:34;;;;;;;50.67;38.65;;;6.10;99.90;;;;;;5026477;28;20201;-55
2022/04/27 02:16:01;;;;;;;54.92;38.35;;;6.10;99.90;;;;;;5028321;28;20207;-53
2022/04/27 02:18:29;;;;;;;50.75;35.42;;;6.10;99.90;;;;;;5030209;28;20553;-54
2022/04/27 02:20:56;;;;;;;58.05;37.92;;;6.10;99.90;;;;;;5026494;28;20200;-55
2022/04/27 02:23:24;;;;;;;47.17;36.88;;;6.10;99.90;;;;;;5028803;28;20203;-53
2022/04/27 02:25:51;;;;;;;53.42;36.75;;;6.10;99.90;;;;;;5027116;28;20271;-54
2022/04/27 02:28:18;;;;;;;54.13;36.78;;;6.00;99.90;;;;;;5029478;28;20233;-53
2022/04/27 02:30:45;;;;;;;53.08;37.47;;;6.00;99.90;;;;;;5028279;28;20231;-53
2022/04/27 02:33:13;;;;;;;51.05;35.75;;;6.10;99.90;;;;;;5029404;28;20204;-55
2022/04/27 02:35:40;;;;;;;49.05;36.40;;;6.00;99.90;;;;;;5026785;28;20240;-52
2022/04/27 02:38:07;;;;;;;57.13;38.20;;;6.00;99.90;;;;;;5040034;23;20247;-49
2022/04/27 02:40:35;;;;;;;47.90;37.33;;;6.00;99.90;;;;;;4996506;28;20535;-45
2022/04/27 02:43:02;;;;;;;50.45;37.92;;;6.00;99.90;;;;;;5002316;28;20212;-43
2022/04/27 02:45:29;;;;;;;46.72;36.65;;;5.90;99.90;;;;;;5004627;28;20200;-44
2022/04/27 02:47:59;;;;;;;53.90;36.90;;;5.90;99.90;;;;;;5003527;28;20228;-45
2022/04/27 02:53:12;;;;;;;59.33;40.78;;;5.90;99.90;;;;;;5005038;28;20239;-47
2022/04/27 02:55:39;;;;;;;61.78;39.85;;;5.80;99.90;;;;;;5003934;28;20542;-43
2022/04/27 02:58:06;;;;;;;52.42;38.10;;;5.80;99.90;;;;;;5005722;28;20262;-44
2022/04/27 03:00:34;;;;;;;46.72;36.60;;;5.70;99.90;;;;;;5003406;28;20255;-43
2022/04/27 03:03:02;;;;;;;51.50;37.53;;;5.70;99.90;;;;;;5004667;28;20205;-42
2022/04/27 03:05:30;;;;;;;50.42;36.40;;;5.60;99.90;;;;;;5003745;28;20204;-43
2022/04/27 03:07:57;;;;;;;49.80;35.80;;;5.60;99.90;;;;;;5004005;28;20284;-49
2022/04/27 03:10:24;;;;;;;46.92;36.42;;;5.70;99.90;;;;;;5004834;28;20530;-44
2022/04/27 03:12:51;;;;;;;56.38;38.00;;;5.70;99.90;;;;;;5003082;28;20488;-47
2022/04/27 03:15:18;;;;;;;52.72;36.38;;;5.70;99.90;;;;;;5004993;28;20228;-46
2022/04/27 03:18:16;;;;;;;53.90;38.33;;;5.70;99.90;;;;;;5003686;28;20220;-46
2022/04/27 03:20:32;;;;;;;57.92;40.67;;;5.70;99.90;;;;;;5003008;28;20538;-44
2022/04/27 03:23:00;;;;;;;47.83;38.83;;;5.70;99.90;;;;;;5004220;28;20211;-44
2022/04/27 03:25:28;;;;;;;47.47;35.55;;;5.70;99.90;;;;;;5004143;28;20215;-44
2022/04/27 03:27:55;;;;;;;52.13;39.08;;;5.60;99.90;;;;;;5003463;28;20401;-44
2022/04/27 03:30:22;;;;;;;58.45;38.70;;;5.60;99.90;;;;;;5004860;28;20383;-45
2022/04/27 03:32:49;;;;;;;54.05;39.20;;;5.70;99.90;;;;;;5002283;28;20443;-43
2022/04/27 03:35:17;;;;;;;53.33;39.10;;;5.70;99.90;;;;;;5004906;28;20227;-45
2022/04/27 03:37:44;;;;;;;52.92;37.90;;;5.70;99.90;;;;;;5002770;28;20232;-43
2022/04/27 03:40:11;;;;;;;47.83;36.95;;;5.70;99.90;;;;;;5005147;28;20223;-45
2022/04/27 03:42:38;;;;;;;63.90;40.33;;;5.80;99.90;;;;;;5004388;28;20208;-44
2022/04/27 03:45:06;;;;;;;57.85;40.42;;;5.70;99.90;;;;;;5005416;28;20489;-43
2022/04/27 03:47:33;;;;;;;55.17;39.42;;;5.70;99.90;;;;;;5003217;28;20225;-46
2022/04/27 03:50:04;;;;;;;56.55;41.47;;;5.80;99.90;;;;;;5004180;28;20206;-47
2022/04/27 03:52:31;;;;;;;51.05;39.67;;;5.80;99.90;;;;;;5003670;28;20212;-45
2022/04/27 03:55:01;;;;;;;52.15;38.20;;;5.80;99.90;;;;;;5003961;28;20236;-42
2022/04/27 03:57:34;;;;;;;54.50;38.33;;;5.80;99.90;;;;;;5004182;28;20534;-47
2022/04/27 04:00:03;;;;;;;54.13;37.20;;;5.90;99.90;;;;;;5004039;28;20633;-42
2022/04/27 04:02:30;;;;;;;56.97;39.45;;;5.90;99.90;;;;;;5003577;28;20212;-44
2022/04/27 04:05:00;;;;;;;78.10;43.33;;;5.90;99.90;;;;;;5003285;28;20209;-45
2022/04/27 04:07:28;;;;;;;55.17;40.78;;;6.00;99.90;;;;;;5007038;28;20204;-43
2022/04/27 04:09:55;;;;;;;47.35;39.20;;;6.00;99.90;;;;;;5009004;28;20206;-43
2022/04/27 04:12:22;;;;;;;67.80;43.13;;;6.10;99.90;;;;;;5011808;28;20201;-43
2022/04/27 04:14:50;;;;;;;62.42;39.28;;;6.10;99.90;;;;;;5011687;28;20252;-45
2022/04/27 04:17:18;;;;;;;55.63;40.60;;;6.10;99.90;;;;;;5011258;28;20507;-43
2022/04/27 04:19:45;;;;;;;59.30;44.65;;;6.20;99.90;;;;;;5012699;28;20253;-41
2022/04/27 04:22:13;;;;;;;61.45;42.13;;;6.30;99.90;;;;;;5014976;28;20262;-42
2022/04/27 04:28:29;;;;;;;76.20;47.40;;;6.40;99.90;;;;;;5011495;28;20204;-43
2022/04/27 04:30:17;;;;;;;73.53;46.47;;;6.50;99.90;;;;;;5023206;28;20207;-44
2022/04/27 04:32:45;;;;;;;81.45;51.65;;;6.60;99.90;;;;;;5023748;28;20396;-45
2022/04/27 04:35:13;;;;;;;84.53;52.22;;;6.70;99.90;;;;;;5023530;28;20227;-44
2022/04/27 04:37:41;;;;;;;80.05;51.67;;;6.80;99.90;;;;;;5023178;28;20231;-43
2022/04/27 04:40:08;;;;;;;72.95;49.63;;;7.10;99.90;;;;;;5023242;28;20226;-43
2022/04/27 04:42:36;;;;;;;82.00;49.00;;;7.20;99.90;;;;;;5022850;28;20213;-43
2022/04/27 04:45:03;;;;;;;62.85;45.13;;;7.40;99.90;;;;;;5013500;28;20365;-42
2022/04/27 04:47:31;;;;;;;58.47;42.63;;;7.70;99.90;;;;;;5018371;28;20200;-41
2022/04/27 04:49:59;;;;;;;55.47;40.60;;;7.80;99.90;;;;;;5014667;28;20220;-42
2022/04/27 04:52:30;;;;;;;51.95;35.70;;;7.90;99.90;;;;;;5011013;28;20408;-43
2022/04/27 04:54:57;;;;;;;48.42;32.75;;;8.00;99.90;;;;;;5019441;28;20217;-42
2022/04/27 04:57:24;;;;;;;45.40;32.80;;;8.10;99.90;;;;;;5022528;28;20196;-43
2022/04/27 04:59:51;;;;;;;36.83;28.63;;;8.10;99.90;;;;;;5022735;28;20428;-42
2022/04/27 05:02:19;;;;;;;36.17;28.67;;;8.20;99.90;;;;;;5022632;28;20201;-43
2022/04/27 05:04:46;;;;;;;42.08;29.40;;;8.30;99.90;;;;;;5022251;28;20208;-41
2022/04/27 05:07:13;;;;;;;36.22;24.92;;;8.30;99.90;;;;;;5021371;28;20204;-42
2022/04/27 05:09:41;;;;;;;34.45;26.83;;;8.50;99.90;;;;;;5018467;28;20204;-44
2022/04/27 05:12:08;;;;;;;33.65;27.08;;;8.50;99.90;;;;;;5014393;28;20201;-44
2022/04/27 05:14:36;;;;;;;35.83;26.50;;;8.80;99.90;;;;;;5022190;28;20482;-44
2022/04/27 05:17:04;;;;;;;26.98;22.00;;;8.70;99.90;;;;;;5023084;28;20271;-42
2022/04/27 05:19:31;;;;;;;31.60;21.67;;;8.70;99.90;;;;;;5022211;28;20228;-44
2022/04/27 05:21:58;;;;;;;31.05;24.30;;;8.80;99.90;;;;;;5020481;28;20220;-46
2022/04/27 05:24:26;;;;;;;38.22;24.23;;;8.90;99.90;;;;;;5013723;28;20220;-44
2022/04/27 05:26:53;;;;;;;28.38;22.50;;;9.20;99.90;;;;;;5022763;28;20426;-47
2022/04/27 05:32:10;;;;;;;28.48;23.30;;;9.50;99.90;;;;;;5020024;28;20206;-44
2022/04/27 05:34:41;;;;;;;31.23;23.30;;;9.70;99.90;;;;;;5010264;28;20243;-45
2022/04/27 05:37:09;;;;;;;34.70;22.67;;;9.90;99.90;;;;;;5007476;28;20222;-45
2022/04/27 05:39:39;;;;;;;26.92;20.48;;;10.10;99.90;;;;;;5001613;28;20275;-45
2022/04/27 05:42:06;;;;;;;23.90;20.23;;;10.30;99.90;;;;;;5001621;28;20207;-46
2022/04/27 05:44:34;;;;;;;27.80;20.83;;;10.50;99.90;;;;;;5002542;28;20572;-45
2022/04/27 05:47:03;;;;;;;25.95;20.00;;;10.80;99.90;;;;;;5009578;28;20543;-43
2022/04/27 05:49:31;;;;;;;23.98;19.13;;;10.90;99.90;;;;;;5015295;28;20218;-42
2022/04/27 05:51:58;;;;;;;23.67;20.63;;;11.10;99.90;;;;;;5021715;28;20665;-42
2022/04/27 05:54:25;;;;;;;25.17;21.20;;;11.10;99.90;;;;;;5019867;28;20200;-43
2022/04/27 05:56:56;;;;;;;24.92;20.90;;;11.40;99.90;;;;;;5021293;28;20392;-44
2022/04/27 05:59:23;;;;;;;22.30;19.60;;;11.50;99.90;;;;;;5019905;28;20282;-44
2022/04/27 06:01:50;;;;;;;26.60;21.73;;;11.80;99.90;;;;;;5021105;28;20244;-42
2022/04/27 06:04:26;;;;;;;23.58;18.92;;;12.00;99.90;;;;;;5002209;28;20322;-42
2022/04/27 06:06:54;;;;;;;23.45;17.30;;;12.20;99.90;;;;;;5001891;28;20216;-45
2022/04/27 06:09:21;;;;;;;19.60;16.55;;;12.60;99.90;;;;;;5000501;28;20613;-42
2022/04/27 06:11:48;;;;;;;22.55;17.30;;;13.10;99.90;;;;;;5001366;28;20201;-46
2022/04/27 06:14:15;;;;;;;22.33;17.60;;;13.50;99.90;;;;;;5000832;28;20197;-44
2022/04/27 06:16:43;;;;;;;29.35;18.55;;;13.90;99.90;;;;;;5001168;28;20225;-48
2022/04/27 06:19:13;;;;;;;28.90;18.10;;;14.30;99.90;;;;;;5010646;28;20259;-43
2022/04/27 06:21:41;;;;;;;21.20;17.48;;;14.60;99.90;;;;;;5012178;28;20278;-44
2022/04/27 06:24:08;;;;;;;27.48;20.40;;;15.00;99.90;;;;;;5020973;28;20421;-46
2022/04/27 06:26:36;;;;;;;22.90;16.80;;;15.30;99.90;;;;;;5020032;28;20223;-43
2022/04/27 06:29:03;;;;;;;22.73;17.25;;;15.40;99.90;;;;;;5020586;28;20407;-45
2022/04/27 06:31:31;;;;;;;17.13;15.40;;;15.80;99.90;;;;;;5019868;28;20205;-48
2022/04/27 06:33:58;;;;;;;17.63;15.33;;;16.80;99.90;;;;;;5020652;28;20568;-45
2022/04/27 06:36:26;;;;;;;18.13;16.20;;;18.00;99.90;;;;;;5020355;28;20771;-43
2022/04/27 06:38:53;;;;;;;18.03;15.83;;;19.30;99.90;;;;;;5020938;28;20687;-44
2022/04/27 06:41:22;;;;;;;18.50;15.37;;;20.20;99.90;;;;;;5021270;28;20468;-44
2022/04/27 06:43:49;;;;;;;20.50;16.33;;;20.80;99.90;;;;;;5022168;28;20457;-45
2022/04/27 06:46:16;;;;;;;17.90;16.07;;;21.10;99.20;;;;;;5022289;28;20482;-42
2022/04/27 06:48:45;;;;;;;16.57;14.97;;;20.90;99.00;;;;;;5013671;28;20438;-45
2022/04/27 06:51:12;;;;;;;18.27;14.37;;;21.30;97.50;;;;;;5010384;28;20414;-46
2022/04/27 06:53:39;;;;;;;18.00;13.40;;;22.50;93.50;;;;;;5019094;28;20658;-43
2022/04/27 06:56:06;;;;;;;22.07;14.50;;;24.00;86.60;;;;;;5020018;28;20501;-44
2022/04/27 06:58:33;;;;;;;13.97;12.27;;;24.40;80.80;;;;;;5019920;28;20481;-46
2022/04/27 07:01:00;;;;;;;19.93;14.00;;;26.60;70.20;;;;;;5020156;28;20447;-43
2022/04/27 07:03:31;;;;;;;15.60;11.60;;;28.00;64.30;;;;;;5019792;28;20434;-44
2022/04/27 07:06:00;;;;;;;17.10;13.23;;;29.40;57.20;;;;;;5020092;28;20627;-45
2022/04/27 07:08:29;;;;;;;12.40;11.10;;;30.20;58.40;;;;;;5020152;28;20787;-47
2022/04/27 07:10:56;;;;;;;13.63;10.17;;;30.60;53.80;;;;;;5019976;28;20430;-46
2022/04/27 07:13:24;;;;;;;10.43;9.50;;;30.10;53.10;;;;;;5019905;28;20440;-44
2022/04/27 07:15:51;;;;;;;11.73;8.63;;;28.00;55.00;;;;;;5020151;28;20472;-44
2022/04/27 07:18:19;;;;;;;11.00;9.53;;;27.90;56.50;;;;;;5019762;28;20557;-49
2022/04/27 07:20:46;;;;;;;10.23;8.20;;;26.70;57.40;;;;;;5019906;28;20442;-45
2022/04/27 07:23:13;;;;;;;10.70;9.60;;;27.50;56.40;;;;;;5019675;28;20440;-48
2022/04/27 07:25:40;;;;;;;10.27;8.87;;;27.00;57.50;;;;;;5019618;28;20650;-47
2022/04/27 07:28:07;;;;;;;10.17;9.17;;;26.80;56.50;;;;;;5019724;28;20567;-47
2022/04/27 07:30:35;;;;;;;9.00;7.10;;;27.10;56.60;;;;;;5019794;28;20445;-51
2022/04/27 07:33:03;;;;;;;8.20;6.87;;;27.30;55.80;;;;;;5019519;28;20518;-44
2022/04/27 07:35:31;;;;;;;10.47;7.67;;;26.70;56.00;;;;;;5019188;28;20467;-43
2022/04/27 07:37:58;;;;;;;8.93;7.50;;;26.40;57.10;;;;;;5019521;28;20466;-44
2022/04/27 07:40:25;;;;;;;10.83;8.20;;;27.70;55.10;;;;;;5019726;28;20442;-45
2022/04/27 07:42:53;;;;;;;7.23;6.50;;;26.90;54.30;;;;;;5019940;28;20426;-44
2022/04/27 07:45:20;;;;;;;9.23;7.40;;;26.10;56.60;;;;;;5019696;28;20442;-46
2022/04/27 07:47:48;;;;;;;11.40;8.93;;;26.60;57.80;;;;;;5019497;28;20454;-48
2022/04/27 07:50:17;;;;;;;10.43;8.90;;;27.50;56.90;;;;;;5019680;28;20448;-45
2022/04/27 07:52:44;;;;;;;7.50;6.80;;;28.00;55.30;;;;;;5019440;28;20429;-44
2022/04/27 07:55:12;;;;;;;10.07;6.50;;;26.80;55.10;;;;;;5019615;28;20586;-43
2022/04/27 07:57:39;;;;;;;5.60;5.17;;;25.50;56.00;;;;;;5019622;28;20446;-44
2022/04/27 08:00:09;;;;;;;8.20;7.00;;;24.70;56.30;;;;;;5022262;28;20549;-44
2022/04/27 08:02:36;;;;;;;8.60;6.97;;;25.50;57.90;;;;;;5023406;28;20492;-45
2022/04/27 08:05:05;;;;;;;9.70;7.37;;;27.00;55.00;;;;;;5021957;28;20438;-46
2022/04/27 08:07:40;;;;;;;8.23;7.47;;;27.00;56.40;;;;;;5023260;28;20445;-46
2022/04/27 08:10:13;;;;;;;7.50;6.90;;;27.00;56.00;;;;;;5022968;28;20487;-42
2022/04/27 08:12:43;;;;;;;7.20;6.50;;;23.30;61.50;;;;;;5023190;28;20432;-42
2022/04/27 08:15:10;;;;;;;12.30;6.93;;;21.90;65.10;;;;;;5022444;28;20417;-44
2022/04/27 08:18:10;;;;;;;7.17;6.30;;;23.60;62.50;;;;;;5023198;28;20458;-44
2022/04/27 08:23:29;;;;;;;6.03;5.07;;;27.30;56.90;;;;;;5022429;28;20619;-46
2022/04/27 08:25:59;;;;;;;7.70;6.13;;;27.70;52.50;;;;;;5022754;28;20440;-46
2022/04/27 08:28:27;;;;;;;5.03;3.50;;;26.90;53.90;;;;;;5022747;28;20454;-43
2022/04/27 08:30:55;;;;;;;2.90;2.50;;;25.60;51.50;;;;;;5022822;28;20488;-43
2022/04/27 08:33:23;;;;;;;2.40;2.20;;;25.30;52.10;;;;;;5022619;28;20438;-43
2022/04/27 08:35:51;;;;;;;4.33;3.83;;;25.00;51.60;;;;;;5022456;28;20474;-43
2022/04/27 08:38:38;;;;;;;4.23;3.90;;;24.40;54.20;;;;;;5022518;28;20450;-45
2022/04/27 08:41:06;;;;;;;3.40;3.10;;;23.70;53.80;;;;;;5022593;28;20434;-44
2022/04/27 08:43:33;;;;;;;4.43;3.90;;;21.90;56.70;;;;;;5022174;28;20436;-43
2022/04/27 08:46:04;;;;;;;4.47;3.73;;;22.40;57.20;;;;;;5022767;28;20484;-45
2022/04/27 08:48:32;;;;;;;5.70;4.53;;;24.20;55.00;;;;;;5022118;28;20642;-42
2022/04/27 08:51:03;;;;;;;8.53;3.83;;;25.20;54.00;;;;;;5022973;28;20609;-46
2022/04/27 08:53:31;;;;;;;3.43;3.13;;;25.50;52.20;;;;;;5022585;28;20430;-43
2022/04/27 08:55:58;;;;;;;3.60;3.30;;;25.30;51.70;;;;;;5022739;28;20476;-43
2022/04/27 08:58:26;;;;;;;2.93;2.63;;;24.70;51.70;;;;;;5022165;28;20454;-44
2022/04/27 09:01:07;;;;;;;4.40;3.33;;;24.80;53.20;;;;;;5022974;28;20427;-42
2022/04/27 09:03:37;;;;;;;3.23;2.93;;;25.80;51.20;;;;;;5022235;28;20497;-43
2022/04/27 09:06:12;;;;;;;3.40;3.10;;;26.60;51.00;;;;;;5022875;28;20495;-44
2022/04/27 09:08:55;;;;;;;4.27;3.80;;;23.10;53.80;;;;;;5021555;28;20688;-48
2022/04/27 09:11:28;;;;;;;6.33;2.93;;;22.70;55.00;;;;;;5020161;28;20795;-48
2022/04/27 09:14:00;;;;;;;3.73;2.63;;;24.10;54.30;;;;;;5022149;28;20466;-48
2022/04/27 09:22:27;;;;;;;3.23;3.03;;;24.40;52.00;;;;;;5021602;28;20442;-47
2022/04/27 09:24:57;;;;;;;3.43;2.93;;;22.30;55.90;;;;;;5021713;28;20617;-46
2022/04/27 09:27:25;;;;;;;5.93;3.70;;;21.10;59.30;;;;;;5021746;28;20436;-45
2022/04/27 09:30:07;;;;;;;3.93;3.47;;;20.40;61.00;;;;;;5021554;28;20435;-45
2022/04/27 09:32:35;;;;;;;3.83;3.23;;;20.10;62.40;;;;;;5022343;28;20463;-47
2022/04/27 09:35:03;;;;;;;4.07;2.50;;;19.60;62.20;;;;;;5021705;28;20459;-43
2022/04/27 09:37:46;;;;;;;3.30;3.00;;;19.70;62.30;;;;;;5021152;28;20472;-47
2022/04/27 09:40:13;;;;;;;2.97;2.77;;;19.40;61.30;;;;;;5021445;28;20728;-44
2022/04/27 09:42:43;;;;;;;6.47;3.63;;;19.10;62.80;;;;;;5021538;28;20421;-43
2022/04/27 09:45:20;;;;;;;4.17;3.77;;;19.10;64.20;;;;;;5021565;28;20429;-45
2022/04/27 09:47:49;;;;;;;6.03;3.40;;;18.60;64.50;;;;;;5016958;28;20501;-44
2022/04/27 09:50:17;;;;;;;4.43;3.97;;;18.40;66.00;;;;;;5010648;28;20497;-45
2022/04/27 09:52:47;;;;;;;6.20;3.00;;;17.90;68.60;;;;;;5008975;28;20450;-43
2022/04/27 09:55:15;;;;;;;4.03;3.63;;;17.60;69.60;;;;;;5020877;28;20874;-47
2022/04/27 09:57:56;;;;;;;5.90;4.17;;;17.60;70.30;;;;;;5021143;28;20455;-46
2022/04/27 10:00:25;;;;;;;7.10;4.37;;;17.70;70.60;;;;;;5021774;28;20424;-44
2022/04/27 10:02:53;;;;;;;3.87;3.40;;;17.30;69.80;;;;;;5021035;28;20507;-46
2022/04/27 10:05:22;;;;;;;3.60;3.20;;;17.40;69.90;;;;;;5020798;28;20411;-44
2022/04/27 10:07:51;;;;;;;3.53;2.87;;;17.20;69.70;;;;;;5020986;28;20804;-46
2022/04/27 10:10:19;;;;;;;5.60;3.10;;;17.00;71.90;;;;;;5020494;28;20732;-45
2022/04/27 10:12:48;;;;;;;4.73;3.50;;;16.80;72.10;;;;;;5021416;28;20793;-46
2022/04/27 10:15:16;;;;;;;5.67;3.70;;;16.80;71.20;;;;;;5021081;28;20452;-44
2022/04/27 10:17:43;;;;;;;4.10;3.50;;;17.00;72.50;;;;;;5012404;28;20460;-47
2022/04/27 10:20:34;;;;;;;2.57;2.37;;;17.30;72.60;;;;;;5020260;28;20457;-44
2022/04/27 10:23:24;;;;;;;3.53;3.23;;;17.30;72.40;;;;;;5019788;28;20472;-45
2022/04/27 10:26:14;;;;;;;2.67;2.47;;;17.50;71.00;;;;;;5020825;28;20430;-45
2022/04/27 10:28:50;;;;;;;3.23;2.97;;;17.30;70.10;;;;;;5020538;28;20440;-44
2022/04/27 10:31:39;;;;;;;3.57;3.27;;;17.10;73.10;;;;;;5020318;28;20458;-47
2022/04/27 10:34:23;;;;;;;3.80;3.17;;;17.30;74.00;;;;;;5020695;28;20441;-43
2022/04/27 10:36:52;;;;;;;4.57;3.27;;;17.40;72.80;;;;;;5020665;28;20452;-45
2022/04/27 10:39:21;;;;;;;5.13;3.73;;;17.60;72.50;;;;;;5019810;28;20482;-45
2022/04/27 10:41:52;;;;;;;3.60;3.30;;;17.50;73.40;;;;;;5020119;28;20407;-44
2022/04/27 10:44:19;;;;;;;4.47;3.97;;;17.70;73.70;;;;;;5020174;28;20443;-49
2022/04/27 10:46:46;;;;;;;3.67;3.37;;;17.90;73.20;;;;;;5020239;28;20433;-47
2022/04/27 10:49:19;;;;;;;4.60;3.70;;;18.10;72.30;;;;;;5020113;28;20439;-47
2022/04/27 10:51:58;;;;;;;4.40;4.00;;;17.90;74.30;;;;;;5020193;28;20415;-48
2022/04/27 10:54:31;;;;;;;4.10;3.23;;;17.80;74.40;;;;;;5020090;28;20438;-42
2022/04/27 10:57:16;;;;;;;3.97;3.67;;;17.50;76.50;;;;;;5020432;28;20466;-47
2022/04/27 10:59:48;;;;;;;3.93;3.53;;;17.80;75.50;;;;;;5020906;28;20751;-43
2022/04/27 11:02:41;;;;;;;8.20;4.93;;;17.50;74.30;;;;;;5020143;28;20408;-45
2022/04/27 11:05:11;;;;;;;3.53;3.23;;;17.40;74.00;;;;;;5020305;28;20437;-45
2022/04/27 11:07:44;;;;;;;7.70;4.33;;;17.20;76.00;;;;;;5019534;28;20476;-46
2022/04/27 11:10:15;;;;;;;4.60;3.90;;;17.30;76.20;;;;;;5019549;28;20403;-46
2022/04/27 11:12:51;;;;;;;3.87;3.57;;;17.10;75.30;;;;;;5020197;28;20659;-51
2022/04/27 11:15:26;;;;;;;4.03;3.30;;;16.80;78.70;;;;;;5021499;28;20411;-43
2022/04/27 11:18:01;;;;;;;7.30;4.57;;;16.80;83.20;;;;;;5020672;28;20497;-44
2022/04/27 11:20:33;;;;;;;6.90;4.07;;;16.90;80.70;;;;;;5019719;28;20410;-45
2022/04/27 11:23:03;;;;;;;5.00;3.67;;;16.90;81.70;;;;;;5020381;28;20412;-47
2022/04/27 11:25:32;;;;;;;6.77;4.60;;;16.90;81.00;;;;;;5020426;28;20448;-43
2022/04/27 11:28:00;;;;;;;6.67;4.83;;;16.90;83.00;;;;;;5020121;28;20611;-47
2022/04/27 11:30:29;;;;;;;5.83;4.40;;;16.70;82.80;;;;;;5011983;28;20810;-44
2022/04/27 11:32:57;;;;;;;4.87;4.47;;;16.70;83.40;;;;;;5019690;28;20423;-44
2022/04/27 11:35:25;;;;;;;4.50;4.10;;;17.00;83.10;;;;;;5022408;28;20437;-46
2022/04/27 11:37:54;;;;;;;6.03;4.70;;;17.40;80.50;;;;;;5023689;28;20476;-45
2022/04/27 11:40:25;;;;;;;4.10;3.50;;;17.90;79.40;;;;;;5023690;28;20433;-45
2022/04/27 11:42:53;;;;;;;4.37;3.80;;;18.20;76.60;;;;;;5023814;28;20429;-48
2022/04/27 11:45:23;;;;;;;5.70;3.63;;;18.30;76.10;;;;;;5023660;28;20407;-46
2022/04/27 11:47:59;;;;;;;5.27;4.63;;;18.50;75.70;;;;;;5024239;28;20461;-46
2022/04/27 11:50:29;;;;;;;4.70;4.30;;;18.30;75.40;;;;;;5023459;28;20407;-45
2022/04/27 11:53:00;;;;;;;4.87;4.40;;;17.60;76.90;;;;;;5023520;28;20619;-46
2022/04/27 11:55:28;;;;;;;6.23;4.33;;;17.40;79.10;;;;;;5018387;28;20413;-46
2022/04/27 11:57:56;;;;;;;5.37;4.20;;;17.70;78.50;;;;;;5019893;28;20825;-45
2022/04/27 12:00:26;;;;;;;4.87;4.37;;;18.50;77.00;;;;;;5023022;28;20765;-47
2022/04/27 12:03:04;;;;;;;4.40;4.00;;;19.20;72.90;;;;;;5023313;28;20412;-43
2022/04/27 12:05:37;;;;;;;5.30;4.80;;;19.50;72.20;;;;;;5023691;28;20467;-45
2022/04/27 12:08:13;;;;;;;4.37;3.93;;;19.40;71.70;;;;;;5023305;28;20520;-46
2022/04/27 12:10:45;;;;;;;4.50;4.10;;;18.70;72.80;;;;;;5023356;28;20433;-46
2022/04/27 12:13:14;;;;;;;3.83;3.23;;;18.50;76.90;;;;;;5022519;28;20776;-45
2022/04/27 12:15:52;;;;;;;4.37;3.97;;;18.40;75.80;;;;;;5023511;28;20730;-42
2022/04/27 12:18:27;;;;;;;4.40;4.00;;;18.30;72.30;;;;;;5022970;28;20428;-49
2022/04/27 12:20:58;;;;;;;4.53;4.13;;;17.80;73.90;;;;;;5022651;28;20900;-44
2022/04/27 12:23:29;;;;;;;5.07;3.17;;;17.60;72.30;;;;;;5021922;28;20481;-47
2022/04/27 12:26:00;;;;;;;4.33;3.93;;;17.80;74.30;;;;;;5023155;28;20582;-46
2022/04/27 12:28:33;;;;;;;5.03;3.90;;;17.70;77.60;;;;;;5022640;28;20420;-44
2022/04/27 12:31:05;;;;;;;4.43;2.70;;;17.60;79.90;;;;;;5014891;28;20413;-48
2022/04/27 12:33:38;;;;;;;5.70;3.47;;;17.30;73.50;;;;;;5014227;28;20753;-42
2022/04/27 12:39:09;;;;;;;3.00;2.80;;;17.00;74.10;;;;;;5022702;28;20461;-43
2022/04/27 12:41:41;;;;;;;3.43;2.97;;;16.90;72.90;;;;;;5022692;28;20408;-47
2022/04/27 12:44:11;;;;;;;2.97;2.77;;;17.10;71.40;;;;;;5023144;28;20621;-44
2022/04/27 12:47:00;;;;;;;5.40;3.03;;;17.40;71.70;;;;;;5022477;28;20431;-42
2022/04/27 12:49:50;;;;;;;2.70;2.50;;;17.60;69.90;;;;;;5023076;28;20634;-47
2022/04/27 12:52:23;;;;;;;4.30;3.43;;;17.90;70.70;;;;;;5021649;28;20443;-49
2022/04/27 12:55:01;;;;;;;3.97;3.30;;;17.90;70.40;;;;;;5022690;28;20408;-45
2022/04/27 12:57:42;;;;;;;2.80;2.60;;;17.50;69.70;;;;;;5022027;28;20657;-46
2022/04/27 13:00:11;;;;;;;3.43;3.13;;;17.10;69.60;;;;;;5022966;28;20814;-43
2022/04/27 13:02:38;;;;;;;4.07;2.13;;;16.80;68.70;;;;;;5022052;28;20419;-46
2022/04/27 13:05:08;;;;;;;3.73;3.17;;;16.80;68.60;;;;;;5022123;28;20422;-47
2022/04/27 13:07:35;;;;;;;2.60;2.40;;;17.00;69.20;;;;;;5022042;28;20432;-44
2022/04/27 13:12:50;;;;;;;3.53;3.00;;;17.40;69.60;;;;;;5021589;28;20770;-43
2022/04/27 13:15:17;;;;;;;8.77;3.77;;;17.60;67.60;;;;;;5013389;28;20675;-46
2022/04/27 13:17:46;;;;;;;3.17;2.93;;;17.90;67.60;;;;;;5013417;28;20654;-46
2022/04/27 13:20:19;;;;;;;4.00;2.87;;;18.20;66.10;;;;;;5010374;28;20437;-47